createdAt,value
2018-07-31T00:00:56.888Z,22.07
2018-07-31T00:03:26.141Z,22.06
2018-07-31T00:05:55.211Z,22.01
2018-07-31T00:08:24.263Z,21.98
2018-07-31T00:10:53.354Z,21.96
2018-07-31T00:13:22.466Z,21.94
2018-07-31T00:15:51.546Z,21.91
2018-07-31T00:18:20.710Z,21.91
2018-07-31T00:20:49.794Z,21.84
2018-07-31T00:23:19.022Z,21.84
2018-07-31T00:25:48.107Z,21.79
2018-07-31T00:28:17.188Z,21.77
2018-07-31T00:30:46.280Z,21.73
2018-07-31T00:33:15.435Z,21.70
2018-07-31T00:35:44.493Z,21.66
2018-07-31T00:38:13.609Z,21.65
2018-07-31T00:40:42.710Z,21.62
2018-07-31T00:43:11.799Z,21.61
2018-07-31T00:45:40.899Z,21.56
2018-07-31T00:48:10.881Z,21.51
2018-07-31T00:50:40.880Z,21.48
2018-07-31T00:53:11.011Z,21.44
2018-07-31T00:55:40.930Z,21.43
2018-07-31T00:58:11.217Z,21.44
2018-07-31T01:00:41.175Z,21.45
2018-07-31T01:03:11.177Z,21.37
2018-07-31T01:05:41.057Z,21.30
2018-07-31T01:08:11.165Z,21.29
2018-07-31T01:10:41.298Z,21.25
2018-07-31T01:13:11.165Z,21.20
2018-07-31T01:15:41.203Z,21.18
2018-07-31T01:18:11.200Z,21.13
2018-07-31T01:20:41.387Z,21.10
2018-07-31T01:23:11.262Z,21.04
2018-07-31T01:25:41.356Z,21.02
2018-07-31T01:28:11.545Z,21.02
2018-07-31T01:30:41.433Z,21.00
2018-07-31T01:33:11.442Z,20.98
2018-07-31T01:35:41.582Z,20.98
2018-07-31T01:38:11.603Z,20.95
2018-07-31T01:40:41.506Z,20.93
2018-07-31T01:43:11.424Z,20.98
2018-07-31T01:45:41.591Z,20.99
2018-07-31T01:48:11.625Z,21.01
2018-07-31T01:50:41.577Z,21.02
2018-07-31T01:53:11.664Z,21.06
2018-07-31T01:55:41.593Z,21.06
2018-07-31T01:58:11.727Z,21.06
2018-07-31T02:00:41.716Z,21.07
2018-07-31T02:03:11.702Z,21.06
2018-07-31T02:05:41.711Z,21.06
2018-07-31T02:08:11.797Z,21.08
2018-07-31T02:10:41.790Z,21.08
2018-07-31T02:13:11.649Z,21.10
2018-07-31T02:15:41.743Z,21.03
2018-07-31T02:18:11.789Z,21.02
2018-07-31T02:20:41.989Z,20.95
2018-07-31T02:23:12.717Z,20.87
2018-07-31T02:25:42.273Z,20.81
2018-07-31T02:28:11.938Z,20.76
2018-07-31T02:30:41.911Z,20.67
2018-07-31T02:33:11.898Z,20.53
2018-07-31T02:35:40.980Z,20.49
2018-07-31T02:38:10.059Z,20.46
2018-07-31T02:40:39.155Z,20.44
2018-07-31T02:43:08.185Z,20.40
2018-07-31T02:45:37.269Z,20.38
2018-07-31T02:48:06.540Z,20.37
2018-07-31T02:50:35.564Z,20.37
2018-07-31T02:53:04.745Z,20.33
2018-07-31T02:55:33.790Z,20.32
2018-07-31T02:58:03.003Z,20.33
2018-07-31T03:00:32.101Z,20.33
2018-07-31T03:03:01.169Z,20.32
2018-07-31T03:05:30.279Z,20.31
2018-07-31T03:07:59.403Z,20.28
2018-07-31T03:10:28.412Z,20.24
2018-07-31T03:12:57.506Z,20.11
2018-07-31T03:15:26.625Z,20.05
2018-07-31T03:17:55.705Z,20.02
2018-07-31T03:20:24.809Z,20.01
2018-07-31T03:22:53.887Z,20.06
2018-07-31T03:25:23.117Z,20.01
2018-07-31T03:27:52.179Z,20.01
2018-07-31T03:30:21.242Z,20.02
2018-07-31T03:32:50.342Z,20.04
2018-07-31T03:35:19.401Z,20.02
2018-07-31T03:37:48.617Z,19.97
2018-07-31T03:40:17.727Z,19.88
2018-07-31T03:42:46.825Z,19.87
2018-07-31T03:45:15.947Z,19.85
2018-07-31T03:47:45.061Z,19.81
2018-07-31T03:50:14.266Z,19.78
2018-07-31T03:52:43.487Z,19.79
2018-07-31T03:55:12.609Z,19.77
2018-07-31T03:57:42.721Z,19.71
2018-07-31T04:00:12.657Z,19.68
2018-07-31T04:02:42.752Z,19.61
2018-07-31T04:05:12.739Z,19.53
2018-07-31T04:07:42.817Z,19.50
2018-07-31T04:10:12.935Z,19.43
2018-07-31T04:12:42.807Z,19.40
2018-07-31T04:15:12.930Z,19.42
2018-07-31T04:17:47.033Z,19.44
2018-07-31T04:20:16.185Z,19.43
2018-07-31T04:22:45.259Z,19.44
2018-07-31T04:25:14.400Z,19.49
2018-07-31T04:27:43.481Z,19.51
2018-07-31T04:30:12.965Z,19.56
2018-07-31T04:32:42.963Z,19.61
2018-07-31T04:35:13.098Z,19.64
2018-07-31T04:37:43.015Z,19.64
2018-07-31T04:40:14.018Z,19.62
2018-07-31T04:42:43.181Z,19.51
2018-07-31T04:45:13.547Z,19.46
2018-07-31T04:47:43.065Z,19.50
2018-07-31T04:50:13.214Z,19.55
2018-07-31T05:12:02.306Z,19.63
2018-07-31T05:14:31.511Z,20.29
2018-07-31T05:17:00.597Z,20.37
2018-07-31T05:19:29.670Z,20.46
2018-07-31T05:21:58.782Z,20.52
2018-07-31T05:24:27.845Z,20.59
2018-07-31T05:26:56.931Z,20.65
2018-07-31T05:29:26.080Z,20.72
2018-07-31T05:31:55.143Z,20.79
2018-07-31T05:34:24.238Z,20.85
2018-07-31T05:36:53.280Z,20.91
2018-07-31T05:39:22.398Z,20.98
2018-07-31T05:41:51.482Z,21.07
2018-07-31T05:44:20.606Z,21.15
2018-07-31T05:46:49.727Z,21.22
2018-07-31T05:49:18.791Z,21.29
2018-07-31T05:51:47.854Z,21.35
2018-07-31T05:54:16.930Z,21.40
2018-07-31T05:56:46.065Z,21.45
2018-07-31T05:59:15.278Z,21.52
2018-07-31T06:01:44.392Z,21.59
2018-07-31T06:04:13.962Z,21.65
2018-07-31T06:06:43.886Z,21.71
2018-07-31T06:09:14.023Z,21.79
2018-07-31T06:11:43.910Z,21.86
2018-07-31T06:16:49.332Z,22.02
2018-07-31T06:19:18.486Z,22.10
2018-07-31T06:21:47.605Z,22.16
2018-07-31T06:24:16.740Z,22.22
2018-07-31T06:26:45.852Z,22.27
2018-07-31T06:29:14.964Z,22.34
2018-07-31T06:31:44.270Z,22.45
2018-07-31T06:34:14.188Z,22.53
2018-07-31T06:36:44.200Z,22.60
2018-07-31T06:39:14.252Z,22.71
2018-07-31T06:41:44.543Z,22.77
2018-07-31T06:44:14.265Z,22.83
2018-07-31T06:46:44.418Z,22.89
2018-07-31T06:49:14.561Z,22.99
2018-07-31T06:51:44.426Z,23.11
2018-07-31T06:54:14.329Z,23.20
2018-07-31T06:56:44.491Z,23.27
2018-07-31T06:59:14.576Z,23.34
2018-07-31T07:01:44.495Z,23.43
2018-07-31T07:04:14.827Z,23.47
2018-07-31T07:06:44.553Z,23.54
2018-07-31T07:09:14.673Z,23.65
2018-07-31T07:11:44.597Z,23.80
2018-07-31T07:14:14.483Z,23.90
2018-07-31T07:16:44.536Z,23.98
2018-07-31T07:19:13.619Z,24.03
2018-07-31T07:21:42.716Z,24.09
2018-07-31T07:24:11.780Z,24.17
2018-07-31T07:26:40.857Z,24.22
2018-07-31T07:29:10.304Z,24.32
2018-07-31T07:31:39.440Z,24.37
2018-07-31T07:34:08.905Z,24.42
2018-07-31T07:36:38.127Z,24.50
2018-07-31T07:39:10.856Z,24.55
2018-07-31T07:41:40.264Z,24.65
2018-07-31T07:44:10.197Z,24.74
2018-07-31T07:46:39.313Z,24.82
2018-07-31T07:49:08.881Z,24.88
2018-07-31T07:51:38.101Z,25.01
2018-07-31T07:54:07.298Z,25.04
2018-07-31T07:56:36.320Z,25.20
2018-07-31T07:59:05.425Z,25.32
2018-07-31T08:01:34.477Z,25.36
2018-07-31T08:04:03.639Z,25.43
2018-07-31T08:06:32.723Z,25.42
2018-07-31T08:09:01.814Z,25.52
2018-07-31T08:11:30.890Z,25.69
2018-07-31T08:13:59.962Z,25.82
2018-07-31T08:16:29.006Z,25.88
2018-07-31T08:18:58.108Z,25.94
2018-07-31T08:21:27.218Z,26.03
2018-07-31T08:23:56.289Z,26.03
2018-07-31T08:26:25.481Z,26.08
2018-07-31T08:28:54.620Z,26.15
2018-07-31T08:31:23.714Z,26.31
2018-07-31T08:33:52.804Z,26.42
2018-07-31T08:36:21.971Z,26.56
2018-07-31T08:38:51.105Z,26.64
2018-07-31T08:41:20.260Z,26.69
2018-07-31T08:43:49.317Z,26.68
2018-07-31T08:46:18.469Z,26.77
2018-07-31T08:48:47.569Z,26.85
2018-07-31T08:51:16.652Z,26.96
2018-07-31T08:53:45.741Z,27.08
2018-07-31T08:56:15.401Z,27.24
2018-07-31T08:58:44.513Z,27.37
2018-07-31T09:01:13.650Z,27.37
2018-07-31T09:03:42.883Z,27.50
2018-07-31T09:06:11.967Z,27.53
2018-07-31T09:08:41.263Z,27.57
2018-07-31T09:11:10.274Z,27.69
2018-07-31T09:13:39.532Z,27.77
2018-07-31T09:16:08.604Z,27.82
2018-07-31T09:18:38.346Z,27.90
2018-07-31T09:21:07.417Z,27.94
2018-07-31T09:23:36.531Z,27.99
2018-07-31T09:26:05.663Z,28.05
2018-07-31T09:28:35.313Z,28.16
2018-07-31T09:31:09.623Z,28.30
2018-07-31T09:33:38.684Z,28.49
2018-07-31T09:36:08.672Z,28.61
2018-07-31T09:38:37.836Z,28.68
2018-07-31T09:41:07.061Z,28.74
2018-07-31T09:43:36.332Z,28.93
2018-07-31T09:46:05.451Z,29.08
2018-07-31T09:48:34.566Z,29.19
2018-07-31T09:51:03.600Z,29.30
2018-07-31T09:53:32.716Z,29.31
2018-07-31T09:56:01.790Z,29.33
2018-07-31T09:58:30.901Z,29.36
2018-07-31T10:01:05.261Z,29.38
2018-07-31T10:03:34.376Z,29.38
2018-07-31T10:06:03.468Z,29.40
2018-07-31T10:08:32.598Z,29.41
2018-07-31T10:11:01.667Z,29.52
2018-07-31T10:13:30.760Z,29.63
2018-07-31T10:15:59.854Z,29.76
2018-07-31T10:18:28.933Z,29.85
2018-07-31T10:20:58.047Z,29.93
2018-07-31T10:23:27.116Z,29.98
2018-07-31T10:25:56.226Z,30.01
2018-07-31T10:28:25.369Z,30.06
2018-07-31T10:30:54.541Z,30.14
2018-07-31T10:33:23.551Z,30.27
2018-07-31T10:35:52.627Z,30.42
2018-07-31T10:38:21.802Z,30.43
2018-07-31T10:40:50.946Z,30.45
2018-07-31T10:43:20.026Z,30.53
2018-07-31T10:45:49.179Z,30.60
2018-07-31T10:48:18.302Z,30.68
2018-07-31T10:50:47.350Z,30.81
2018-07-31T10:53:16.702Z,30.85
2018-07-31T10:55:46.771Z,30.88
2018-07-31T10:58:16.876Z,30.97
2018-07-31T11:00:46.927Z,30.98
2018-07-31T11:03:16.819Z,30.95
2018-07-31T11:05:46.982Z,30.99
2018-07-31T11:08:16.864Z,31.09
2018-07-31T11:10:46.986Z,31.15
2018-07-31T11:13:16.878Z,31.11
2018-07-31T11:15:46.938Z,30.96
2018-07-31T11:18:16.923Z,30.95
2018-07-31T11:20:47.027Z,31.07
2018-07-31T11:23:16.940Z,31.06
2018-07-31T11:25:47.061Z,31.13
2018-07-31T11:28:17.004Z,31.24
2018-07-31T11:30:47.153Z,31.25
2018-07-31T11:33:16.205Z,31.22
2018-07-31T11:35:45.347Z,31.30
2018-07-31T11:38:14.469Z,31.43
2018-07-31T11:40:43.543Z,31.59
2018-07-31T11:43:12.643Z,31.71
2018-07-31T11:45:41.736Z,31.74
2018-07-31T11:48:11.123Z,31.77
2018-07-31T11:50:40.192Z,31.75
2018-07-31T11:53:09.363Z,31.77
2018-07-31T11:55:38.481Z,31.75
2018-07-31T11:58:07.613Z,31.87
2018-07-31T12:00:36.638Z,31.84
2018-07-31T12:03:05.771Z,31.84
2018-07-31T12:05:34.840Z,31.95
2018-07-31T12:08:03.896Z,32.05
2018-07-31T12:10:32.998Z,32.16
2018-07-31T12:13:02.098Z,32.22
2018-07-31T12:15:31.286Z,32.26
2018-07-31T12:18:00.363Z,32.35
2018-07-31T12:20:29.436Z,32.43
2018-07-31T12:22:58.535Z,32.60
2018-07-31T12:25:27.582Z,32.69
2018-07-31T12:27:56.669Z,32.65
2018-07-31T12:30:25.753Z,32.70
2018-07-31T12:32:55.020Z,32.85
2018-07-31T12:35:23.975Z,32.94
2018-07-31T12:37:53.415Z,33.01
2018-07-31T12:40:22.241Z,33.05
2018-07-31T12:42:51.510Z,33.04
2018-07-31T12:45:20.668Z,32.99
2018-07-31T12:47:49.777Z,32.59
2018-07-31T12:50:19.129Z,32.26
2018-07-31T12:52:49.067Z,32.01
2018-07-31T12:55:19.074Z,31.87
2018-07-31T12:57:49.185Z,32.00
2018-07-31T13:00:19.175Z,32.33
2018-07-31T13:02:49.283Z,32.67
2018-07-31T13:05:19.407Z,33.00
2018-07-31T13:07:49.484Z,33.15
2018-07-31T13:10:19.230Z,33.36
2018-07-31T13:12:49.320Z,33.48
2018-07-31T13:15:19.456Z,33.56
2018-07-31T13:17:49.473Z,33.58
2018-07-31T13:20:19.491Z,33.69
2018-07-31T13:22:49.477Z,33.83
2018-07-31T13:25:19.547Z,33.90
2018-07-31T13:27:50.301Z,33.87
2018-07-31T13:30:19.776Z,33.89
2018-07-31T13:32:49.687Z,33.81
2018-07-31T13:35:19.606Z,33.69
2018-07-31T13:37:49.721Z,33.61
2018-07-31T13:40:19.878Z,33.58
2018-07-31T13:42:49.764Z,33.84
2018-07-31T13:45:19.690Z,34.03
2018-07-31T13:47:49.692Z,34.26
2018-07-31T13:50:18.790Z,34.49
2018-07-31T13:52:47.887Z,34.63
2018-07-31T13:55:17.096Z,34.80
2018-07-31T13:57:46.053Z,34.90
2018-07-31T14:00:15.168Z,34.87
2018-07-31T14:02:44.226Z,34.87
2018-07-31T14:05:13.306Z,34.83
2018-07-31T14:07:42.395Z,34.49
2018-07-31T14:10:11.472Z,34.41
2018-07-31T14:12:40.641Z,34.76
2018-07-31T14:15:09.761Z,35.24
2018-07-31T14:17:38.876Z,35.27
2018-07-31T14:20:07.949Z,35.13
2018-07-31T14:22:37.613Z,35.11
2018-07-31T14:25:06.743Z,34.85
2018-07-31T14:27:35.864Z,35.25
2018-07-31T14:30:05.950Z,34.82
2018-07-31T14:32:35.045Z,34.50
2018-07-31T14:35:04.145Z,34.18
2018-07-31T14:37:33.243Z,33.95
2018-07-31T14:40:02.359Z,33.98
2018-07-31T14:42:31.444Z,34.94
2018-07-31T14:45:00.876Z,35.30
2018-07-31T14:47:29.926Z,35.10
2018-07-31T14:49:59.287Z,35.41
2018-07-31T14:52:28.398Z,35.67
2018-07-31T14:54:57.502Z,35.84
2018-07-31T14:57:26.539Z,36.53
2018-07-31T14:59:55.672Z,37.16
2018-07-31T15:02:24.853Z,37.47
2018-07-31T15:04:54.000Z,37.67
2018-07-31T15:07:23.126Z,38.02
2018-07-31T15:09:52.226Z,37.95
2018-07-31T15:12:21.283Z,38.02
2018-07-31T15:14:50.522Z,38.03
2018-07-31T15:17:20.599Z,38.09
2018-07-31T15:19:50.692Z,38.11
2018-07-31T15:22:20.668Z,38.20
2018-07-31T15:24:50.615Z,38.20
2018-07-31T15:27:19.675Z,38.13
2018-07-31T15:29:48.721Z,38.39
2018-07-31T15:32:17.833Z,38.62
2018-07-31T15:34:47.147Z,38.41
2018-07-31T15:37:16.206Z,37.64
2018-07-31T15:39:45.263Z,37.03
2018-07-31T15:42:14.385Z,37.06
2018-07-31T15:44:43.439Z,37.41
2018-07-31T15:47:12.553Z,37.62
2018-07-31T15:49:41.632Z,37.73
2018-07-31T15:52:10.734Z,37.85
2018-07-31T15:54:39.839Z,37.91
2018-07-31T15:57:08.944Z,37.77
2018-07-31T15:59:38.051Z,37.91
2018-07-31T16:02:07.932Z,37.94
2018-07-31T16:04:37.063Z,38.03
2018-07-31T16:07:06.184Z,38.22
2018-07-31T16:09:35.225Z,38.11
2018-07-31T16:12:04.381Z,37.93
2018-07-31T16:14:33.451Z,37.84
2018-07-31T16:17:02.548Z,37.28
2018-07-31T16:19:31.632Z,36.97
2018-07-31T16:22:00.718Z,36.63
2018-07-31T16:24:29.788Z,36.35
2018-07-31T16:26:59.179Z,36.07
2018-07-31T16:29:28.309Z,35.82
2018-07-31T16:31:57.453Z,35.57
2018-07-31T16:34:26.550Z,35.32
2018-07-31T16:36:55.600Z,35.02
2018-07-31T16:39:24.757Z,34.83
2018-07-31T16:41:53.852Z,34.68
2018-07-31T16:44:22.882Z,34.43
2018-07-31T16:46:52.005Z,34.19
2018-07-31T16:49:21.643Z,34.03
2018-07-31T16:51:51.790Z,33.97
2018-07-31T16:54:21.695Z,33.97
2018-07-31T16:56:51.824Z,33.92
2018-07-31T16:59:21.749Z,33.88
2018-07-31T17:01:52.050Z,33.84
2018-07-31T17:04:21.912Z,33.69
2018-07-31T17:06:51.903Z,33.60
2018-07-31T17:09:21.840Z,33.51
2018-07-31T17:11:51.996Z,33.39
2018-07-31T17:14:22.715Z,33.24
2018-07-31T17:16:51.966Z,33.15
2018-07-31T17:19:22.469Z,33.07
2018-07-31T17:21:51.999Z,33.00
2018-07-31T17:24:22.135Z,32.89
2018-07-31T17:26:52.225Z,32.81
2018-07-31T17:29:22.190Z,32.75
2018-07-31T17:31:52.392Z,32.69
2018-07-31T17:34:22.625Z,32.64
2018-07-31T17:36:52.105Z,32.60
2018-07-31T17:58:41.257Z,32.53
2018-07-31T18:01:12.547Z,31.78
2018-07-31T18:03:42.040Z,31.71
2018-07-31T18:06:11.498Z,31.62
2018-07-31T18:08:40.591Z,31.55
2018-07-31T18:11:09.750Z,31.47
2018-07-31T18:13:38.934Z,31.37
2018-07-31T18:16:08.085Z,31.27
2018-07-31T18:18:37.525Z,31.19
2018-07-31T18:21:06.818Z,31.09
2018-07-31T18:23:36.131Z,30.99
2018-07-31T18:26:05.532Z,30.94
2018-07-31T18:28:34.639Z,30.85
2018-07-31T18:31:03.784Z,30.74
2018-07-31T18:33:32.876Z,30.63
2018-07-31T18:37:38.338Z,30.51
2018-07-31T18:40:08.142Z,30.40
2018-07-31T18:42:37.368Z,30.24
2018-07-31T18:45:06.671Z,30.15
2018-07-31T18:47:36.082Z,30.01
2018-07-31T18:50:05.589Z,29.93
2018-07-31T18:52:34.784Z,29.86
2018-07-31T18:55:04.126Z,29.75
2018-07-31T18:57:33.394Z,29.68
2018-07-31T19:00:02.793Z,29.58
2018-07-31T19:02:32.133Z,29.47
2018-07-31T19:05:01.427Z,29.37
2018-07-31T19:07:30.941Z,29.30
2018-07-31T19:10:00.358Z,29.24
2018-07-31T19:12:29.572Z,29.20
2018-07-31T19:14:58.779Z,29.14
2018-07-31T19:17:28.037Z,29.02
2018-07-31T19:19:57.419Z,28.94
2018-07-31T19:22:26.698Z,28.83
2018-07-31T19:24:55.948Z,28.71
2018-07-31T19:27:25.207Z,28.63
2018-07-31T19:29:54.744Z,28.56
2018-07-31T19:32:24.619Z,28.52
2018-07-31T19:34:54.860Z,28.45
2018-07-31T19:37:24.813Z,28.38
2018-07-31T19:39:54.866Z,28.33
2018-07-31T19:42:24.712Z,28.26
2018-07-31T19:44:54.708Z,28.22
2018-07-31T19:47:24.779Z,28.18
2018-07-31T19:49:54.980Z,28.13
2018-07-31T19:52:24.743Z,28.06
2018-07-31T19:54:55.019Z,27.98
2018-07-31T19:57:24.997Z,27.90
2018-07-31T19:59:54.934Z,27.82
2018-07-31T20:02:24.830Z,27.74
2018-07-31T20:04:55.228Z,27.67
2018-07-31T20:07:24.998Z,27.61
2018-07-31T20:09:55.381Z,27.52
2018-07-31T20:12:25.030Z,27.42
2018-07-31T20:14:55.070Z,27.37
2018-07-31T20:17:25.209Z,27.31
2018-07-31T20:19:54.633Z,27.24
2018-07-31T20:22:23.969Z,27.14
2018-07-31T20:24:53.101Z,27.03
2018-07-31T20:27:22.546Z,26.98
2018-07-31T20:29:51.907Z,26.94
2018-07-31T20:32:21.106Z,26.93
2018-07-31T20:34:50.676Z,26.94
2018-07-31T20:37:20.005Z,26.90
2018-07-31T20:39:49.364Z,26.86
2018-07-31T20:42:18.537Z,26.82
2018-07-31T20:44:47.742Z,26.80
2018-07-31T20:47:16.931Z,26.73
2018-07-31T20:49:46.258Z,26.68
2018-07-31T20:52:15.573Z,26.61
2018-07-31T20:54:44.906Z,26.55
2018-07-31T20:57:14.336Z,26.38
2018-07-31T20:59:43.564Z,26.22
2018-07-31T21:02:12.864Z,26.14
2018-07-31T21:04:42.109Z,26.07
2018-07-31T21:07:11.326Z,25.99
2018-07-31T21:09:40.544Z,25.95
2018-07-31T21:12:09.819Z,25.90
2018-07-31T21:14:39.020Z,25.85
2018-07-31T21:17:08.224Z,25.81
2018-07-31T21:19:37.536Z,25.77
2018-07-31T21:22:06.775Z,25.75
2018-07-31T21:24:36.013Z,25.69
2018-07-31T21:27:05.230Z,25.60
2018-07-31T21:29:34.414Z,25.54
2018-07-31T21:32:03.637Z,25.49
2018-07-31T21:34:32.846Z,25.41
2018-07-31T21:37:02.248Z,25.33
2018-07-31T21:39:31.408Z,25.23
2018-07-31T21:42:00.625Z,25.14
2018-07-31T21:44:29.906Z,25.07
2018-07-31T21:46:59.621Z,25.03
2018-07-31T21:49:28.945Z,24.96
2018-07-31T21:51:58.271Z,24.87
2018-07-31T21:54:27.702Z,24.82
2018-07-31T21:56:57.041Z,24.82
2018-07-31T21:59:26.258Z,24.81
2018-07-31T22:01:56.030Z,24.81
2018-07-31T22:04:26.116Z,24.79
2018-07-31T22:06:56.255Z,24.81
2018-07-31T22:09:36.222Z,24.82
2018-07-31T22:12:05.835Z,24.78
2018-07-31T22:14:35.344Z,24.74
2018-07-31T22:17:04.804Z,24.74
2018-07-31T22:19:34.467Z,24.74
2018-07-31T22:22:03.838Z,24.75
2018-07-31T22:24:33.453Z,24.77
2018-07-31T22:27:02.925Z,24.78
2018-07-31T22:29:32.340Z,24.78
2018-07-31T22:32:01.796Z,24.79
2018-07-31T22:34:31.205Z,24.80
2018-07-31T22:37:00.529Z,24.74
2018-07-31T22:39:29.832Z,24.70
2018-07-31T22:41:59.263Z,24.60
2018-07-31T22:44:28.677Z,24.50
2018-07-31T22:46:58.170Z,24.42
2018-07-31T22:49:27.631Z,24.34
2018-07-31T22:51:57.054Z,24.23
2018-07-31T22:54:26.879Z,24.16
2018-07-31T22:56:57.408Z,24.16
2018-07-31T22:59:26.868Z,24.13
2018-07-31T23:01:57.063Z,24.13
2018-07-31T23:04:27.038Z,24.13
2018-07-31T23:06:57.094Z,24.09
2018-07-31T23:09:27.096Z,24.11
2018-07-31T23:11:57.008Z,24.06
2018-07-31T23:14:27.132Z,24.04
2018-07-31T23:16:57.198Z,23.98
2018-07-31T23:19:27.104Z,23.87
2018-07-31T23:21:57.099Z,23.65
2018-07-31T23:24:27.193Z,23.61
2018-07-31T23:26:57.214Z,23.58
2018-07-31T23:29:27.254Z,23.57
2018-07-31T23:31:57.134Z,23.55
2018-07-31T23:34:27.514Z,23.58
2018-07-31T23:36:57.495Z,23.58
2018-07-31T23:39:27.548Z,23.58
2018-07-31T23:41:57.550Z,23.61
2018-07-31T23:44:27.630Z,23.59
2018-07-31T23:46:57.523Z,23.57
2018-07-31T23:49:27.742Z,23.55
2018-07-31T23:51:57.835Z,23.55
2018-07-31T23:54:27.644Z,23.42
2018-07-31T23:56:57.750Z,23.38
2018-07-31T23:59:27.758Z,23.30
